createdAt,value
2018-06-27T00:00:29.440Z,89.90
2018-06-27T00:02:59.058Z,90.20
2018-06-27T00:05:28.636Z,90.10
2018-06-27T00:07:57.608Z,90.00
2018-06-27T00:10:26.844Z,89.90
2018-06-27T00:12:56.466Z,90.00
2018-06-27T00:15:25.731Z,90.10
2018-06-27T00:17:54.677Z,90.20
2018-06-27T00:20:24.328Z,90.30
2018-06-27T00:22:53.693Z,90.80
2018-06-27T00:25:22.526Z,90.70
2018-06-27T00:27:51.436Z,91.10
2018-06-27T00:30:20.218Z,91.10
2018-06-27T00:32:49.308Z,91.00
2018-06-27T00:35:18.396Z,91.10
2018-06-27T00:37:47.131Z,91.40
2018-06-27T00:40:16.402Z,91.40
2018-06-27T00:42:45.939Z,92.20
2018-06-27T00:45:15.041Z,92.00
2018-06-27T00:50:12.665Z,92.50
2018-06-27T00:52:41.753Z,92.60
2018-06-27T00:55:10.865Z,92.70
2018-06-27T00:57:40.024Z,92.80
2018-06-27T01:00:09.773Z,92.70
2018-06-27T01:02:39.103Z,92.50
2018-06-27T01:05:08.372Z,92.90
2018-06-27T01:07:37.319Z,92.80
2018-06-27T01:10:06.267Z,92.80
2018-06-27T01:12:35.798Z,92.70
2018-06-27T01:15:06.850Z,92.80
2018-06-27T01:17:37.585Z,92.40
2018-06-27T01:20:07.406Z,92.40
2018-06-27T01:22:36.653Z,92.40
2018-06-27T01:25:06.123Z,92.30
2018-06-27T01:27:35.275Z,92.60
2018-06-27T01:30:04.962Z,92.50
2018-06-27T01:32:34.044Z,93.00
2018-06-27T01:35:03.592Z,92.80
2018-06-27T01:37:33.059Z,92.80
2018-06-27T01:40:01.831Z,92.60
2018-06-27T01:42:30.919Z,92.80
2018-06-27T01:44:59.644Z,93.50
2018-06-27T01:47:28.377Z,94.50
2018-06-27T01:49:57.981Z,93.90
2018-06-27T01:52:26.729Z,94.20
2018-06-27T01:54:55.540Z,94.30
2018-06-27T01:57:24.285Z,94.10
2018-06-27T01:59:53.723Z,93.40
2018-06-27T02:02:22.538Z,93.70
2018-06-27T02:04:51.351Z,94.10
2018-06-27T02:07:20.167Z,94.60
2018-06-27T02:09:49.772Z,94.60
2018-06-27T02:12:18.911Z,95.10
2018-06-27T02:14:47.890Z,94.80
2018-06-27T02:17:16.943Z,94.80
2018-06-27T02:19:46.329Z,94.70
2018-06-27T02:22:15.668Z,94.60
2018-06-27T02:24:44.707Z,94.60
2018-06-27T02:27:14.131Z,94.90
2018-06-27T02:29:43.186Z,95.40
2018-06-27T02:32:12.619Z,95.10
2018-06-27T02:34:41.700Z,96.10
2018-06-27T02:37:10.534Z,97.00
2018-06-27T02:39:39.630Z,97.00
2018-06-27T02:42:09.063Z,97.60
2018-06-27T02:44:38.147Z,97.30
2018-06-27T02:47:06.925Z,96.80
2018-06-27T02:49:35.807Z,97.30
2018-06-27T02:52:04.913Z,98.00
2018-06-27T02:54:33.984Z,97.80
2018-06-27T02:57:02.757Z,97.60
2018-06-27T02:59:31.903Z,97.80
2018-06-27T03:02:00.753Z,97.50
2018-06-27T03:04:30.280Z,97.50
2018-06-27T03:06:59.759Z,97.20
2018-06-27T03:09:28.626Z,96.30
2018-06-27T03:11:57.816Z,97.20
2018-06-27T03:14:26.686Z,96.70
2018-06-27T03:16:56.453Z,95.80
2018-06-27T03:19:25.380Z,94.50
2018-06-27T03:21:54.704Z,93.50
2018-06-27T03:24:23.506Z,93.00
2018-06-27T03:26:52.828Z,92.80
2018-06-27T03:29:21.904Z,91.90
2018-06-27T03:31:51.212Z,90.90
2018-06-27T03:34:20.252Z,90.40
2018-06-27T03:36:49.354Z,89.70
2018-06-27T03:39:18.147Z,87.30
2018-06-27T03:41:46.909Z,84.80
2018-06-27T03:44:15.633Z,82.30
2018-06-27T03:46:44.447Z,82.20
2018-06-27T03:49:13.721Z,82.60
2018-06-27T03:51:42.508Z,82.70
2018-06-27T03:54:11.612Z,82.70
2018-06-27T03:56:40.370Z,82.10
2018-06-27T03:59:09.444Z,83.20
2018-06-27T04:01:38.551Z,82.70
2018-06-27T04:04:07.926Z,83.30
2018-06-27T04:06:37.160Z,82.50
2018-06-27T04:09:08.840Z,78.10
2018-06-27T04:11:38.668Z,77.90
2018-06-27T04:14:07.824Z,75.80
2018-06-27T04:16:37.432Z,74.70
2018-06-27T04:19:06.578Z,76.70
2018-06-27T04:21:35.839Z,72.90
2018-06-27T04:24:05.056Z,73.30
2018-06-27T04:26:33.907Z,71.30
2018-06-27T04:29:02.734Z,72.40
2018-06-27T04:31:32.324Z,73.70
2018-06-27T04:34:01.283Z,67.00
2018-06-27T04:36:30.444Z,61.60
2018-06-27T04:38:59.239Z,56.50
2018-06-27T04:41:28.770Z,52.80
2018-06-27T04:43:57.886Z,54.20
2018-06-27T04:46:26.785Z,53.00
2018-06-27T04:48:55.965Z,52.00
2018-06-27T04:51:25.276Z,53.10
2018-06-27T04:53:54.402Z,51.30
2018-06-27T04:56:23.280Z,49.80
2018-06-27T04:58:52.048Z,45.80
2018-06-27T05:01:21.799Z,48.50
2018-06-27T05:03:51.855Z,45.00
2018-06-27T05:06:21.535Z,43.40
2018-06-27T05:08:50.968Z,46.40
2018-06-27T05:11:20.775Z,46.80
2018-06-27T05:13:50.223Z,45.00
2018-06-27T05:16:19.861Z,47.40
2018-06-27T05:18:49.298Z,43.10
2018-06-27T05:21:19.386Z,41.10
2018-06-27T05:23:49.164Z,39.10
2018-06-27T05:26:18.691Z,39.60
2018-06-27T05:28:48.207Z,45.40
2018-06-27T05:31:18.007Z,43.10
2018-06-27T05:33:47.435Z,43.20
2018-06-27T05:36:17.513Z,39.90
2018-06-27T05:38:47.369Z,38.80
2018-06-27T05:41:16.927Z,36.00
2018-06-27T05:43:47.069Z,38.60
2018-06-27T05:46:16.621Z,36.10
2018-06-27T05:48:47.561Z,38.10
2018-06-27T05:51:17.449Z,35.80
2018-06-27T05:53:46.989Z,36.70
2018-06-27T05:56:16.971Z,37.70
2018-06-27T05:58:46.640Z,37.20
2018-06-27T06:01:16.328Z,37.20
2018-06-27T06:03:46.318Z,39.30
2018-06-27T06:06:16.014Z,36.40
2018-06-27T06:08:45.312Z,37.20
2018-06-27T06:11:15.369Z,37.10
2018-06-27T06:13:44.914Z,38.60
2018-06-27T06:16:14.293Z,36.70
2018-06-27T06:18:43.893Z,36.00
2018-06-27T06:21:13.600Z,34.20
2018-06-27T06:23:42.953Z,34.10
2018-06-27T06:26:12.629Z,34.70
2018-06-27T06:28:43.243Z,34.60
2018-06-27T06:31:12.952Z,34.70
2018-06-27T06:33:42.933Z,35.60
2018-06-27T06:36:12.275Z,33.30
2018-06-27T06:38:41.600Z,33.20
2018-06-27T06:41:11.602Z,32.60
2018-06-27T06:43:41.319Z,33.00
2018-06-27T06:46:10.701Z,33.20
2018-06-27T06:48:40.207Z,36.60
2018-06-27T06:51:09.563Z,33.80
2018-06-27T06:53:38.938Z,32.50
2018-06-27T06:56:08.649Z,32.60
2018-06-27T06:58:38.473Z,31.80
2018-06-27T07:01:08.210Z,31.70
2018-06-27T07:03:38.359Z,33.30
2018-06-27T07:06:07.973Z,34.30
2018-06-27T07:08:37.159Z,34.20
2018-06-27T07:11:06.637Z,32.10
2018-06-27T07:13:37.596Z,38.10
2018-06-27T07:16:07.095Z,36.60
2018-06-27T07:18:36.753Z,35.20
2018-06-27T07:21:06.227Z,33.50
2018-06-27T07:23:36.005Z,33.80
2018-06-27T07:26:05.945Z,37.70
2018-06-27T07:28:36.046Z,41.60
2018-06-27T07:31:05.945Z,38.80
2018-06-27T07:33:35.326Z,37.70
2018-06-27T07:36:05.232Z,40.00
2018-06-27T07:38:35.282Z,36.70
2018-06-27T07:41:04.604Z,34.00
2018-06-27T07:43:34.359Z,33.90
2018-06-27T07:46:04.005Z,34.90
2018-06-27T07:48:33.545Z,33.40
2018-06-27T07:51:03.089Z,38.70
2018-06-27T07:53:32.733Z,42.60
2018-06-27T07:56:02.051Z,39.30
2018-06-27T07:58:31.749Z,34.10
2018-06-27T08:01:01.095Z,36.90
2018-06-27T08:03:30.908Z,37.00
2018-06-27T08:06:00.234Z,34.30
2018-06-27T08:08:29.710Z,35.10
2018-06-27T08:10:59.346Z,33.40
2018-06-27T08:13:29.053Z,34.50
2018-06-27T08:15:58.368Z,35.30
2018-06-27T08:18:27.869Z,40.70
2018-06-27T08:20:56.996Z,40.70
2018-06-27T08:23:26.090Z,43.10
2018-06-27T08:25:55.630Z,47.30
2018-06-27T08:28:24.579Z,49.00
2018-06-27T08:30:53.759Z,49.30
2018-06-27T08:33:22.710Z,49.40
2018-06-27T08:35:51.946Z,51.90
2018-06-27T08:38:20.908Z,54.50
2018-06-27T08:40:49.746Z,54.10
2018-06-27T08:43:19.190Z,52.40
2018-06-27T08:45:48.281Z,51.80
2018-06-27T08:48:17.501Z,53.30
2018-06-27T08:50:46.733Z,54.40
2018-06-27T08:53:15.963Z,53.10
2018-06-27T08:55:44.740Z,54.20
2018-06-27T08:58:13.871Z,56.00
2018-06-27T09:00:42.956Z,55.90
2018-06-27T09:03:12.059Z,56.60
2018-06-27T09:05:40.810Z,57.40
2018-06-27T09:08:10.255Z,58.40
2018-06-27T09:10:39.062Z,57.80
2018-06-27T09:13:08.479Z,55.50
2018-06-27T09:15:37.379Z,55.10
2018-06-27T09:18:06.309Z,54.80
2018-06-27T09:20:35.104Z,55.40
2018-06-27T09:23:04.366Z,55.20
2018-06-27T09:25:33.490Z,56.00
2018-06-27T09:28:02.364Z,56.90
2018-06-27T09:30:31.164Z,56.40
2018-06-27T09:33:00.432Z,55.20
2018-06-27T09:35:29.481Z,54.20
2018-06-27T09:37:58.291Z,54.40
2018-06-27T09:40:27.807Z,53.50
2018-06-27T09:42:57.032Z,54.80
2018-06-27T09:45:26.845Z,54.30
2018-06-27T09:47:55.735Z,53.10
2018-06-27T09:50:25.046Z,51.50
2018-06-27T09:52:54.385Z,50.70
2018-06-27T09:55:23.502Z,50.90
2018-06-27T09:57:52.663Z,52.40
2018-06-27T10:00:27.007Z,51.90
2018-06-27T10:02:55.811Z,52.30
2018-06-27T10:05:24.622Z,51.90
2018-06-27T10:07:53.845Z,51.40
2018-06-27T10:10:22.952Z,52.50
2018-06-27T10:12:52.360Z,52.50
2018-06-27T10:15:21.759Z,51.50
2018-06-27T10:17:50.712Z,50.80
2018-06-27T10:20:19.805Z,51.50
2018-06-27T10:22:48.938Z,49.70
2018-06-27T10:25:17.702Z,49.10
2018-06-27T10:27:47.208Z,48.80
2018-06-27T10:30:16.336Z,49.40
2018-06-27T10:32:45.455Z,50.20
2018-06-27T10:35:14.546Z,50.20
2018-06-27T10:37:44.636Z,51.60
2018-06-27T10:40:13.747Z,51.20
2018-06-27T10:42:42.539Z,51.00
2018-06-27T10:45:11.404Z,51.40
2018-06-27T10:47:40.371Z,50.40
2018-06-27T10:50:10.270Z,50.60
2018-06-27T10:52:39.504Z,51.00
2018-06-27T10:55:14.366Z,50.10
2018-06-27T10:57:43.189Z,50.80
2018-06-27T11:00:12.396Z,51.80
2018-06-27T11:02:41.220Z,51.90
2018-06-27T11:05:10.444Z,52.00
2018-06-27T11:07:39.876Z,51.70
2018-06-27T11:10:09.253Z,50.60
2018-06-27T11:12:38.088Z,50.40
2018-06-27T11:15:08.022Z,50.90
2018-06-27T11:17:36.782Z,50.50
2018-06-27T11:20:05.864Z,50.60
2018-06-27T11:22:34.966Z,49.90
2018-06-27T11:25:03.786Z,49.80
2018-06-27T11:27:32.555Z,50.90
2018-06-27T11:30:01.341Z,52.30
2018-06-27T11:32:30.443Z,51.90
2018-06-27T11:34:59.549Z,51.80
2018-06-27T11:37:28.296Z,50.80
2018-06-27T11:39:57.081Z,51.00
2018-06-27T11:42:26.199Z,51.10
2018-06-27T11:44:55.777Z,50.80
2018-06-27T11:47:24.848Z,51.20
2018-06-27T11:49:54.074Z,50.60
2018-06-27T11:52:23.591Z,50.70
2018-06-27T11:54:58.244Z,51.00
2018-06-27T11:57:27.668Z,49.50
2018-06-27T11:59:56.429Z,49.90
2018-06-27T12:02:25.560Z,49.10
2018-06-27T12:04:54.392Z,49.00
2018-06-27T12:07:23.264Z,48.50
2018-06-27T12:09:52.069Z,47.80
2018-06-27T12:12:21.539Z,48.70
2018-06-27T12:14:50.593Z,48.10
2018-06-27T12:17:20.132Z,48.40
2018-06-27T12:19:49.199Z,48.30
2018-06-27T12:22:18.329Z,47.40
2018-06-27T12:24:47.785Z,47.60
2018-06-27T12:27:16.547Z,47.80
2018-06-27T12:29:45.311Z,47.20
2018-06-27T12:32:14.393Z,47.70
2018-06-27T12:34:43.521Z,46.80
2018-06-27T12:37:12.682Z,46.00
2018-06-27T12:39:41.763Z,46.20
2018-06-27T12:42:10.939Z,46.30
2018-06-27T12:44:40.082Z,47.10
2018-06-27T12:47:09.242Z,46.20
2018-06-27T12:49:38.387Z,47.10
2018-06-27T12:52:07.465Z,46.70
2018-06-27T12:54:36.568Z,47.20
2018-06-27T12:57:05.348Z,47.60
2018-06-27T12:59:34.485Z,47.20
2018-06-27T13:02:03.794Z,47.90
2018-06-27T13:04:33.455Z,47.00
2018-06-27T13:07:02.616Z,46.90
2018-06-27T13:09:31.665Z,46.60
2018-06-27T13:12:00.939Z,46.80
2018-06-27T13:14:30.309Z,47.20
2018-06-27T13:16:59.791Z,47.90
2018-06-27T13:19:29.078Z,47.40
2018-06-27T13:21:58.177Z,48.00
2018-06-27T13:24:27.395Z,48.10
2018-06-27T13:26:56.812Z,47.70
2018-06-27T13:29:26.058Z,47.50
2018-06-27T13:31:55.168Z,48.00
2018-06-27T13:36:53.109Z,47.70
2018-06-27T13:39:22.581Z,47.30
2018-06-27T13:41:51.378Z,46.40
2018-06-27T13:44:20.460Z,45.80
2018-06-27T13:46:49.252Z,45.80
2018-06-27T13:49:18.665Z,45.70
2018-06-27T13:51:47.454Z,45.60
2018-06-27T13:54:16.548Z,46.20
2018-06-27T13:56:46.041Z,47.60
2018-06-27T13:59:14.792Z,47.20
2018-06-27T14:01:43.694Z,47.20
2018-06-27T14:04:12.804Z,47.30
2018-06-27T14:06:42.208Z,47.00
2018-06-27T14:09:11.378Z,48.10
2018-06-27T14:11:40.761Z,47.70
2018-06-27T14:14:10.031Z,47.80
2018-06-27T14:16:39.577Z,48.00
2018-06-27T14:19:08.561Z,48.30
2018-06-27T14:21:37.387Z,47.80
2018-06-27T14:24:06.518Z,47.10
2018-06-27T14:26:35.986Z,47.00
2018-06-27T14:29:04.746Z,46.90
2018-06-27T14:31:34.381Z,47.50
2018-06-27T14:34:03.169Z,47.30
2018-06-27T14:36:32.314Z,47.10
2018-06-27T14:39:01.785Z,47.30
2018-06-27T14:41:31.220Z,47.30
2018-06-27T14:44:00.121Z,47.30
2018-06-27T14:46:28.744Z,47.40
2018-06-27T14:48:58.091Z,48.20
2018-06-27T14:51:27.560Z,48.70
2018-06-27T14:53:56.355Z,47.90
2018-06-27T14:56:25.738Z,47.90
2018-06-27T14:58:55.036Z,48.10
2018-06-27T15:01:24.340Z,48.00
2018-06-27T15:03:53.110Z,47.50
2018-06-27T15:06:22.055Z,47.90
2018-06-27T15:08:51.661Z,48.00
2018-06-27T15:11:20.925Z,47.80
2018-06-27T15:13:50.321Z,47.70
2018-06-27T15:16:19.981Z,47.80
2018-06-27T15:18:49.163Z,48.20
2018-06-27T15:21:18.069Z,48.60
2018-06-27T15:23:47.131Z,48.30
2018-06-27T15:26:16.561Z,48.20
2018-06-27T15:28:46.020Z,48.80
2018-06-27T15:31:15.011Z,48.10
2018-06-27T15:33:43.781Z,48.00
2018-06-27T15:36:12.895Z,46.90
2018-06-27T15:38:42.044Z,46.40
2018-06-27T15:41:10.861Z,46.70
2018-06-27T15:43:39.635Z,47.00
2018-06-27T15:46:08.887Z,46.70
2018-06-27T15:48:38.037Z,46.90
2018-06-27T15:51:07.466Z,46.70
2018-06-27T15:53:36.933Z,46.80
2018-06-27T15:56:06.964Z,47.30
2018-06-27T15:58:36.074Z,47.70
2018-06-27T16:01:05.348Z,47.30
2018-06-27T16:03:34.522Z,47.40
2018-06-27T16:06:03.884Z,47.70
2018-06-27T16:08:33.526Z,46.30
2018-06-27T16:11:02.592Z,47.20
2018-06-27T16:13:32.328Z,47.10
2018-06-27T16:16:01.144Z,47.50
2018-06-27T16:18:30.402Z,47.60
2018-06-27T16:20:59.845Z,47.80
2018-06-27T16:23:29.253Z,47.20
2018-06-27T16:25:58.781Z,46.50
2018-06-27T16:28:27.988Z,46.70
2018-06-27T16:30:57.190Z,47.30
2018-06-27T16:33:26.332Z,47.30
2018-06-27T16:35:55.074Z,47.00
2018-06-27T16:38:24.209Z,47.30
2018-06-27T16:40:53.528Z,47.10
2018-06-27T16:43:23.048Z,46.60
2018-06-27T16:45:52.085Z,46.50
2018-06-27T16:48:20.866Z,47.10
2018-06-27T16:50:49.713Z,47.30
2018-06-27T16:53:19.526Z,46.50
2018-06-27T16:55:48.295Z,46.80
2018-06-27T16:58:17.432Z,46.80
2018-06-27T17:00:46.560Z,46.80
2018-06-27T17:03:15.963Z,47.30
2018-06-27T17:05:45.151Z,47.10
2018-06-27T17:08:14.374Z,47.30
2018-06-27T17:10:43.202Z,47.50
2018-06-27T17:13:12.609Z,47.10
2018-06-27T17:15:42.275Z,47.20
2018-06-27T17:18:11.344Z,47.40
2018-06-27T17:20:40.340Z,47.70
2018-06-27T17:23:09.573Z,48.20
2018-06-27T17:25:38.447Z,48.40
2018-06-27T17:28:07.584Z,48.60
2018-06-27T17:30:36.944Z,48.00
2018-06-27T17:33:06.070Z,47.60
2018-06-27T17:35:35.148Z,47.30
2018-06-27T17:38:04.337Z,47.10
2018-06-27T17:40:33.630Z,47.30
2018-06-27T17:43:02.759Z,47.60
2018-06-27T17:45:31.564Z,47.70
2018-06-27T17:48:00.352Z,48.00
2018-06-27T17:50:29.136Z,47.90
2018-06-27T17:52:58.564Z,48.00
2018-06-27T17:55:27.666Z,48.40
2018-06-27T17:57:56.763Z,48.50
2018-06-27T18:00:26.987Z,49.40
2018-06-27T18:02:55.740Z,48.90
2018-06-27T18:05:25.241Z,49.10
2018-06-27T18:07:54.375Z,49.40
2018-06-27T18:10:23.188Z,49.30
2018-06-27T18:12:52.981Z,49.40
2018-06-27T18:15:22.514Z,49.40
2018-06-27T18:17:51.652Z,50.10
2018-06-27T18:20:21.287Z,49.60
2018-06-27T18:22:50.585Z,49.80
2018-06-27T18:25:19.683Z,49.90
2018-06-27T18:27:49.103Z,49.80
2018-06-27T18:30:18.463Z,50.20
2018-06-27T18:32:47.760Z,49.90
2018-06-27T18:35:16.650Z,50.50
2018-06-27T18:37:46.332Z,50.70
2018-06-27T18:40:15.647Z,50.60
2018-06-27T18:42:44.574Z,50.80
2018-06-27T18:45:13.672Z,51.40
2018-06-27T18:47:42.651Z,51.00
2018-06-27T18:50:11.868Z,51.60
2018-06-27T18:52:40.774Z,51.00
2018-06-27T18:55:09.732Z,51.10
2018-06-27T18:57:38.623Z,51.20
2018-06-27T19:00:09.141Z,51.50
2018-06-27T19:02:38.004Z,51.60
2018-06-27T19:05:06.848Z,51.80
2018-06-27T19:07:35.721Z,51.90
2018-06-27T19:10:04.723Z,52.10
2018-06-27T19:12:33.689Z,52.20
2018-06-27T19:15:02.713Z,52.50
2018-06-27T19:17:32.091Z,52.70
2018-06-27T19:20:01.085Z,52.80
2018-06-27T19:22:30.217Z,53.10
2018-06-27T19:24:59.401Z,53.40
2018-06-27T19:27:28.552Z,53.70
2018-06-27T19:29:57.903Z,54.00
2018-06-27T19:32:27.402Z,55.10
2018-06-27T19:34:56.276Z,54.70
2018-06-27T19:37:25.187Z,56.00
2018-06-27T19:39:54.206Z,57.10
2018-06-27T19:42:23.157Z,58.00
2018-06-27T19:44:52.091Z,59.30
2018-06-27T19:47:21.329Z,60.60
2018-06-27T19:49:50.206Z,61.30
2018-06-27T19:52:19.134Z,62.50
2018-06-27T19:54:48.447Z,63.10
2018-06-27T19:57:17.578Z,64.10
2018-06-27T19:59:46.372Z,64.90
2018-06-27T20:02:15.473Z,65.40
2018-06-27T20:04:44.331Z,66.10
2018-06-27T20:07:13.248Z,66.60
2018-06-27T20:09:42.857Z,67.20
2018-06-27T20:12:11.882Z,67.50
2018-06-27T20:14:42.448Z,67.70
2018-06-27T20:17:11.555Z,68.20
2018-06-27T20:19:40.542Z,68.60
2018-06-27T20:22:13.595Z,69.20
2018-06-27T20:24:42.663Z,69.50
2018-06-27T20:27:12.028Z,70.00
2018-06-27T20:29:41.876Z,70.20
2018-06-27T20:34:39.676Z,70.90
2018-06-27T20:37:09.196Z,71.20
2018-06-27T20:39:39.294Z,71.60
2018-06-27T20:42:08.707Z,72.00
2018-06-27T20:44:39.056Z,72.10
2018-06-27T20:47:08.668Z,72.30
2018-06-27T20:49:37.777Z,72.30
2018-06-27T20:52:06.619Z,72.80
2018-06-27T20:54:35.753Z,73.20
2018-06-27T20:57:05.536Z,73.30
2018-06-27T20:59:34.688Z,73.40
2018-06-27T21:02:03.491Z,73.50
2018-06-27T21:04:33.006Z,73.70
2018-06-27T21:07:02.113Z,73.90
2018-06-27T21:09:31.037Z,74.20
2018-06-27T21:11:59.825Z,74.30
2018-06-27T21:14:28.997Z,75.00
2018-06-27T21:16:58.123Z,74.90
2018-06-27T21:19:26.970Z,74.80
2018-06-27T21:21:57.054Z,74.90
2018-06-27T21:24:26.323Z,75.50
2018-06-27T21:26:55.175Z,75.50
2018-06-27T21:29:24.516Z,75.60
2018-06-27T21:31:54.594Z,75.80
2018-06-27T21:34:23.470Z,76.20
2018-06-27T21:36:52.568Z,75.80
2018-06-27T21:39:21.793Z,76.20
2018-06-27T21:41:51.110Z,77.40
2018-06-27T21:44:20.575Z,76.20
2018-06-27T21:46:49.855Z,76.40
2018-06-27T21:49:22.011Z,76.40
2018-06-27T21:51:51.339Z,77.10
2018-06-27T21:54:20.170Z,76.40
2018-06-27T21:56:49.566Z,76.80
2018-06-27T21:59:18.541Z,76.60
2018-06-27T22:01:47.366Z,76.80
2018-06-27T22:04:16.828Z,76.80
2018-06-27T22:06:45.933Z,76.90
2018-06-27T22:09:15.172Z,76.90
2018-06-27T22:11:44.404Z,77.30
2018-06-27T22:14:13.483Z,77.40
2018-06-27T22:16:42.628Z,77.10
2018-06-27T22:19:11.901Z,76.50
2018-06-27T22:21:40.651Z,77.10
2018-06-27T22:24:10.294Z,77.40
2018-06-27T22:26:39.439Z,77.10
2018-06-27T22:29:08.617Z,77.30
2018-06-27T22:31:37.834Z,77.20
2018-06-27T22:34:06.622Z,78.00
2018-06-27T22:36:35.782Z,77.20
2018-06-27T22:39:07.499Z,77.30
2018-06-27T22:41:37.267Z,77.40
2018-06-27T22:44:06.708Z,77.20
2018-06-27T22:46:36.224Z,77.40
2018-06-27T22:49:05.632Z,77.80
2018-06-27T22:51:34.789Z,77.40
2018-06-27T22:54:03.744Z,77.30
2018-06-27T22:56:32.927Z,77.40
2018-06-27T22:59:01.976Z,78.20
2018-06-27T23:01:31.242Z,78.10
2018-06-27T23:04:00.411Z,77.60
2018-06-27T23:06:29.607Z,77.80
2018-06-27T23:08:58.369Z,77.90
2018-06-27T23:11:27.138Z,77.90
2018-06-27T23:13:55.956Z,78.00
2018-06-27T23:16:24.698Z,78.10
2018-06-27T23:18:53.514Z,78.00
2018-06-27T23:21:22.663Z,77.90
2018-06-27T23:23:51.746Z,79.00
2018-06-27T23:26:20.822Z,78.10
2018-06-27T23:28:50.496Z,78.00
2018-06-27T23:31:19.578Z,78.10
2018-06-27T23:33:48.663Z,78.30
2018-06-27T23:36:17.793Z,78.40
2018-06-27T23:38:46.905Z,78.50
2018-06-27T23:41:16.060Z,78.00
2018-06-27T23:43:44.881Z,78.00
2018-06-27T23:46:13.782Z,78.10
2018-06-27T23:48:42.873Z,79.00
2018-06-27T23:51:11.779Z,79.30
2018-06-27T23:53:40.791Z,79.40
2018-06-27T23:56:10.113Z,79.80
2018-06-27T23:58:39.044Z,79.80
